Time,TemperatureF,DewpointF,PressureIn,WindDirection,WindDirectionDegrees,WindSpeedMPH,WindSpeedGustMPH,Humidity,HourlyPrecipIn,Conditions,Clouds,dailyrainin,SolarRadiationWatts/m^2,SoftwareType,DateUTC
2013-05-03 00:01:00,42.0,16.0,-100.00,East,81,2.0,10.0,35,0.00,,,0.00,0.000000,,2013-05-03 06:01:00,
2013-05-03 00:11:00,42.0,16.0,-100.00,East,81,2.0,10.0,35,0.00,,,0.00,0.000000,,2013-05-03 06:11:00,
2013-05-03 00:42:00,42.0,15.0,-100.00,ENE,67,2.0,7.0,33,0.00,,,0.00,0.000000,,2013-05-03 06:42:00,
2013-05-03 00:52:00,42.0,15.0,-100.00,ENE,67,2.0,7.0,33,0.00,,,0.00,0.000000,,2013-05-03 06:52:00,
2013-05-03 01:01:00,42.0,15.0,-100.00,ENE,67,2.0,7.0,33,0.00,,,0.00,0.000000,,2013-05-03 07:01:00,
2013-05-03 01:11:00,42.0,15.0,-100.00,ENE,67,2.0,7.0,33,0.00,,,0.00,0.000000,,2013-05-03 07:11:00,
2013-05-03 01:42:00,40.0,19.0,-100.00,East,84,2.0,4.0,43,0.00,,,0.00,0.000000,,2013-05-03 07:42:00,
2013-05-03 01:52:00,40.0,19.0,-100.00,East,84,2.0,4.0,43,0.00,,,0.00,0.000000,,2013-05-03 07:52:00,
2013-05-03 02:01:00,40.0,19.0,-100.00,East,84,2.0,4.0,43,0.00,,,0.00,0.000000,,2013-05-03 08:01:00,
2013-05-03 02:11:00,40.0,19.0,-100.00,East,84,2.0,4.0,43,0.00,,,0.00,0.000000,,2013-05-03 08:11:00,
2013-05-03 02:42:00,40.0,21.0,-100.00,SE,145,4.0,6.0,46,0.00,,,0.00,0.000000,,2013-05-03 08:42:00,
2013-05-03 02:52:00,40.0,21.0,-100.00,SE,145,4.0,6.0,46,0.00,,,0.00,0.000000,,2013-05-03 08:52:00,
2013-05-03 03:01:00,40.0,21.0,-100.00,SE,145,4.0,6.0,46,0.00,,,0.00,0.000000,,2013-05-03 09:01:00,
2013-05-03 03:11:00,40.0,21.0,-100.00,SE,145,4.0,6.0,46,0.00,,,0.00,0.000000,,2013-05-03 09:11:00,
2013-05-03 03:42:00,40.0,20.0,-100.00,NNW,328,1.0,5.0,45,0.00,,,0.00,0.000000,,2013-05-03 09:42:00,
2013-05-03 03:53:00,40.0,20.0,-100.00,NNW,328,1.0,5.0,45,0.00,,,0.00,0.000000,,2013-05-03 09:53:00,
2013-05-03 04:02:00,40.0,20.0,-100.00,NNW,328,1.0,5.0,45,0.00,,,0.00,0.000000,,2013-05-03 10:02:00,
2013-05-03 04:12:00,40.0,20.0,-100.00,NNW,328,1.0,5.0,45,0.00,,,0.00,0.000000,,2013-05-03 10:12:00,
2013-05-03 04:32:00,37.0,21.0,-100.00,SSE,150,2.0,5.0,51,0.00,,,0.00,0.000000,,2013-05-03 10:32:00,
2013-05-03 04:42:00,37.0,21.0,-100.00,SSE,150,2.0,5.0,51,0.00,,,0.00,0.000000,,2013-05-03 10:42:00,
2013-05-03 04:52:00,37.0,21.0,-100.00,SSE,150,2.0,5.0,51,0.00,,,0.00,0.000000,,2013-05-03 10:52:00,
2013-05-03 05:02:00,37.0,21.0,-100.00,SSE,150,2.0,5.0,51,0.00,,,0.00,0.000000,,2013-05-03 11:02:00,
2013-05-03 05:11:00,37.0,21.0,-100.00,SSE,150,2.0,5.0,51,0.00,,,0.00,0.000000,,2013-05-03 11:11:00,
2013-05-03 05:42:00,38.0,21.0,-100.00,NE,46,1.0,5.0,50,0.00,,,-99.99,0.000000,,2013-05-03 11:42:00,
2013-05-03 05:52:00,38.0,21.0,-100.00,NE,46,1.0,5.0,50,0.00,,,-99.99,0.000000,,2013-05-03 11:52:00,
2013-05-03 06:01:00,38.0,21.0,-100.00,NE,46,1.0,5.0,50,0.00,,,-99.99,0.000000,,2013-05-03 12:01:00,
2013-05-03 06:11:00,38.0,21.0,-100.00,NE,46,1.0,5.0,50,0.00,,,-99.99,0.000000,,2013-05-03 12:11:00,
2013-05-03 06:42:00,38.0,21.0,-100.00,ESE,112,3.0,5.0,50,0.00,,,0.00,0.000000,,2013-05-03 12:42:00,
2013-05-03 06:52:00,38.0,21.0,-100.00,ESE,112,3.0,5.0,50,0.00,,,0.00,0.000000,,2013-05-03 12:52:00,
2013-05-03 07:01:00,38.0,21.0,-100.00,ESE,112,3.0,5.0,50,0.00,,,0.00,0.000000,,2013-05-03 13:01:00,
2013-05-03 07:11:00,38.0,21.0,-100.00,ESE,112,3.0,5.0,50,0.00,,,0.00,0.000000,,2013-05-03 13:11:00,
2013-05-03 07:42:00,39.0,22.0,-100.00,WNW,301,2.0,10.0,51,0.00,,,0.00,13.000000,,2013-05-03 13:42:00,
2013-05-03 07:52:00,39.0,22.0,-100.00,WNW,301,2.0,10.0,51,0.00,,,0.00,13.000000,,2013-05-03 13:52:00,
2013-05-03 08:01:00,39.0,22.0,-100.00,WNW,301,2.0,10.0,51,0.00,,,0.00,13.000000,,2013-05-03 14:01:00,
2013-05-03 08:11:00,39.0,22.0,-100.00,WNW,301,2.0,10.0,51,0.00,,,0.00,13.000000,,2013-05-03 14:11:00,
2013-05-03 08:42:00,40.0,27.0,-100.00,SSE,149,2.0,8.0,59,0.00,,,0.00,65.000000,,2013-05-03 14:42:00,
2013-05-03 08:52:00,40.0,27.0,-100.00,SSE,149,2.0,8.0,59,0.00,,,0.00,65.000000,,2013-05-03 14:52:00,
2013-05-03 09:01:00,40.0,27.0,-100.00,SSE,149,2.0,8.0,59,0.00,,,0.00,65.000000,,2013-05-03 15:01:00,
2013-05-03 09:11:00,40.0,27.0,-100.00,SSE,149,2.0,8.0,59,0.00,,,0.00,65.000000,,2013-05-03 15:11:00,
2013-05-03 09:43:00,46.0,25.0,-100.00,South,169,4.0,8.0,44,0.00,,,0.00,83.000000,,2013-05-03 15:43:00,
2013-05-03 09:53:00,46.0,25.0,-100.00,South,169,4.0,8.0,44,0.00,,,0.00,83.000000,,2013-05-03 15:53:00,
2013-05-03 10:03:00,46.0,25.0,-100.00,South,169,4.0,8.0,44,0.00,,,0.00,83.000000,,2013-05-03 16:03:00,
2013-05-03 10:12:00,46.0,25.0,-100.00,South,169,4.0,8.0,44,0.00,,,0.00,83.000000,,2013-05-03 16:12:00,
2013-05-03 10:42:00,44.0,29.0,-100.00,East,92,8.0,13.0,56,0.00,,,0.00,160.000000,,2013-05-03 16:42:00,
2013-05-03 10:52:00,44.0,29.0,-100.00,East,92,8.0,13.0,56,0.00,,,0.00,160.000000,,2013-05-03 16:52:00,
2013-05-03 11:02:00,44.0,29.0,-100.00,East,92,8.0,13.0,56,0.00,,,0.00,160.000000,,2013-05-03 17:02:00,
2013-05-03 11:11:00,44.0,29.0,-100.00,East,92,8.0,13.0,56,0.00,,,0.00,160.000000,,2013-05-03 17:11:00,
2013-05-03 11:42:00,45.0,32.0,-100.00,SSE,149,4.0,7.0,61,0.00,,,0.00,268.000000,,2013-05-03 17:42:00,
2013-05-03 11:52:00,45.0,32.0,-100.00,SSE,149,4.0,7.0,61,0.00,,,0.00,268.000000,,2013-05-03 17:52:00,
2013-05-03 12:01:00,45.0,32.0,-100.00,SSE,149,4.0,7.0,61,0.00,,,0.00,268.000000,,2013-05-03 18:01:00,
2013-05-03 12:11:00,45.0,32.0,-100.00,SSE,149,4.0,7.0,61,0.00,,,0.00,268.000000,,2013-05-03 18:11:00,
2013-05-03 12:32:00,47.0,31.0,-100.00,West,267,4.0,11.0,54,0.00,,,0.00,407.000000,,2013-05-03 18:32:00,
2013-05-03 12:42:00,47.0,31.0,-100.00,West,267,4.0,11.0,54,0.00,,,0.00,407.000000,,2013-05-03 18:42:00,
2013-05-03 12:52:00,47.0,31.0,-100.00,West,267,4.0,11.0,54,0.00,,,0.00,407.000000,,2013-05-03 18:52:00,
2013-05-03 13:01:00,47.0,31.0,-100.00,West,267,4.0,11.0,54,0.00,,,0.00,407.000000,,2013-05-03 19:01:00,
2013-05-03 13:11:00,47.0,31.0,-100.00,West,267,4.0,11.0,54,0.00,,,0.00,407.000000,,2013-05-03 19:11:00,
2013-05-03 13:42:00,48.0,32.0,-100.00,WNW,301,4.0,8.0,53,0.00,,,0.00,465.000000,,2013-05-03 19:42:00,
2013-05-03 13:52:00,48.0,32.0,-100.00,WNW,301,4.0,8.0,53,0.00,,,0.00,465.000000,,2013-05-03 19:52:00,
2013-05-03 14:02:00,48.0,32.0,-100.00,WNW,301,4.0,8.0,53,0.00,,,0.00,465.000000,,2013-05-03 20:02:00,
2013-05-03 14:11:00,48.0,32.0,-100.00,WNW,301,4.0,8.0,53,0.00,,,0.00,465.000000,,2013-05-03 20:11:00,
2013-05-03 14:32:00,47.0,31.0,-100.00,NW,323,6.0,12.0,54,0.00,,,0.00,296.000000,,2013-05-03 20:32:00,
2013-05-03 14:42:00,47.0,31.0,-100.00,NW,323,6.0,12.0,54,0.00,,,0.00,296.000000,,2013-05-03 20:42:00,
2013-05-03 14:52:00,47.0,31.0,-100.00,NW,323,6.0,12.0,54,0.00,,,0.00,296.000000,,2013-05-03 20:52:00,
2013-05-03 15:01:00,47.0,31.0,-100.00,NW,323,6.0,12.0,54,0.00,,,0.00,296.000000,,2013-05-03 21:01:00,
2013-05-03 15:11:00,47.0,31.0,-100.00,NW,323,6.0,12.0,54,0.00,,,0.00,296.000000,,2013-05-03 21:11:00,
2013-05-03 15:33:00,50.0,34.0,-100.00,West,277,6.0,9.0,54,0.00,,,0.00,457.000000,,2013-05-03 21:33:00,
2013-05-03 15:43:00,50.0,34.0,-100.00,West,277,6.0,9.0,54,0.00,,,0.00,457.000000,,2013-05-03 21:43:00,
2013-05-03 15:53:00,50.0,34.0,-100.00,West,277,6.0,9.0,54,0.00,,,0.00,457.000000,,2013-05-03 21:53:00,
2013-05-03 16:02:00,50.0,34.0,-100.00,West,277,6.0,9.0,54,0.00,,,0.00,457.000000,,2013-05-03 22:02:00,
2013-05-03 16:12:00,50.0,34.0,-100.00,West,277,6.0,9.0,54,0.00,,,0.00,457.000000,,2013-05-03 22:12:00,
2013-05-03 16:42:00,48.0,32.0,-100.00,WSW,251,7.0,12.0,54,0.00,,,0.00,385.000000,,2013-05-03 22:42:00,
2013-05-03 16:52:00,48.0,32.0,-100.00,WSW,251,7.0,12.0,54,0.00,,,0.00,385.000000,,2013-05-03 22:52:00,
2013-05-03 17:01:00,48.0,32.0,-100.00,WSW,251,7.0,12.0,54,0.00,,,0.00,385.000000,,2013-05-03 23:01:00,
2013-05-03 17:11:00,48.0,32.0,-100.00,WSW,251,7.0,12.0,54,0.00,,,0.00,385.000000,,2013-05-03 23:11:00,
2013-05-03 17:52:00,47.0,38.0,-100.00,NNW,344,4.0,16.0,71,0.00,,,0.00,205.000000,,2013-05-03 23:52:00,
2013-05-03 18:01:00,47.0,38.0,-100.00,NNW,344,4.0,16.0,71,0.00,,,0.00,205.000000,,2013-05-04 00:01:00,
2013-05-03 18:11:00,47.0,38.0,-100.00,NNW,344,4.0,16.0,71,0.00,,,0.00,205.000000,,2013-05-04 00:11:00,
2013-05-03 18:42:00,46.0,37.0,-100.00,NW,313,6.0,12.0,70,0.00,,,0.00,169.000000,,2013-05-04 00:42:00,
2013-05-03 18:52:00,46.0,37.0,-100.00,NW,313,6.0,12.0,70,0.00,,,0.00,169.000000,,2013-05-04 00:52:00,
2013-05-03 19:01:00,46.0,37.0,-100.00,NW,313,6.0,12.0,70,0.00,,,0.00,169.000000,,2013-05-04 01:01:00,
2013-05-03 19:11:00,46.0,37.0,-100.00,NW,313,6.0,12.0,70,0.00,,,0.00,169.000000,,2013-05-04 01:11:00,
2013-05-03 19:32:00,43.0,36.0,-100.00,NNW,339,4.0,14.0,75,0.00,,,0.00,121.000000,,2013-05-04 01:32:00,
2013-05-03 19:42:00,43.0,36.0,-100.00,NNW,339,4.0,14.0,75,0.00,,,0.00,121.000000,,2013-05-04 01:42:00,
2013-05-03 19:52:00,43.0,36.0,-100.00,NNW,339,4.0,14.0,75,0.00,,,0.00,121.000000,,2013-05-04 01:52:00,
2013-05-03 20:02:00,43.0,36.0,-100.00,NNW,339,4.0,14.0,75,0.00,,,0.00,121.000000,,2013-05-04 02:02:00,
2013-05-03 20:11:00,43.0,36.0,-100.00,NNW,339,4.0,14.0,75,0.00,,,0.00,121.000000,,2013-05-04 02:11:00,
2013-05-03 20:32:00,42.0,38.0,-100.00,NNW,340,5.0,9.0,86,0.00,,,0.00,52.000000,,2013-05-04 02:32:00,
2013-05-03 20:42:00,42.0,38.0,-100.00,NNW,340,5.0,9.0,86,0.00,,,0.00,52.000000,,2013-05-04 02:42:00,
2013-05-03 20:52:00,42.0,38.0,-100.00,NNW,340,5.0,9.0,86,0.00,,,0.00,52.000000,,2013-05-04 02:52:00,
2013-05-03 21:02:00,42.0,38.0,-100.00,NNW,340,5.0,9.0,86,0.00,,,0.00,52.000000,,2013-05-04 03:02:00,
2013-05-03 21:11:00,42.0,38.0,-100.00,NNW,340,5.0,9.0,86,0.00,,,0.00,52.000000,,2013-05-04 03:11:00,
2013-05-03 21:43:00,38.0,35.0,-100.00,NNW,346,3.0,11.0,90,0.00,,,0.00,8.000000,,2013-05-04 03:43:00,
2013-05-03 21:53:00,38.0,35.0,-100.00,NNW,346,3.0,11.0,90,0.00,,,0.00,8.000000,,2013-05-04 03:53:00,
2013-05-03 22:02:00,38.0,35.0,-100.00,NNW,346,3.0,11.0,90,0.00,,,0.00,8.000000,,2013-05-04 04:02:00,
2013-05-03 22:12:00,38.0,35.0,-100.00,NNW,346,3.0,11.0,90,0.00,,,0.00,8.000000,,2013-05-04 04:12:00,
2013-05-03 22:43:00,39.0,37.0,-100.00,NNW,340,4.0,6.0,94,0.01,,,0.01,0.000000,,2013-05-04 04:43:00,
2013-05-03 22:52:00,39.0,37.0,-100.00,NNW,340,4.0,6.0,94,0.01,,,0.01,0.000000,,2013-05-04 04:52:00,
2013-05-03 23:02:00,39.0,37.0,-100.00,NNW,340,4.0,6.0,94,0.01,,,0.01,0.000000,,2013-05-04 05:02:00,
2013-05-03 23:11:00,39.0,37.0,-100.00,NNW,340,4.0,6.0,94,0.01,,,0.01,0.000000,,2013-05-04 05:11:00,
2013-05-03 23:32:00,38.0,37.0,-100.00,North,9,3.0,6.0,97,0.00,,,0.01,0.000000,,2013-05-04 05:32:00,
2013-05-03 23:43:00,38.0,37.0,-100.00,North,9,3.0,6.0,97,0.00,,,0.01,0.000000,,2013-05-04 05:43:00,
2013-05-03 23:52:00,38.0,37.0,-100.00,North,9,3.0,6.0,97,0.00,,,0.01,0.000000,,2013-05-04 05:52:00,